Abegall, Kentucky
Current Conditions -  °F | °C
As of 11:35 AM on Friday 31 Oct 2014 (Local Time) from KFGX Reporting Station
Drizzle Drizzle  
Wind Chill:   Ceiling: 700
Heat Index:   Visibility: 7mi
Dew Point:   Wind: 6mph
Humidity: 94%   Direction: 230°SW
Pressure: 29.97"   Gusts: NA
Location:  38.6546°N, 83.9578°W
Report Text: KFGX 311535Z AUTO 23005KT 7SM -DZ BKN007 OVC030 07/06 A2997 RMK AO2 T00650056
Loading
Personal Weather Stations






























Interactive Weather Map
Tropical Storm Tracking
New forecast layout! Learn more

10-Day Weather Forecast

Advertisements
Track Severe Weather on mobile